Eider — V2KA — position and weather

sailwx.info

Track history (hours):
 
Tides and Currents Weather Stations Pressure Air Temp Water Temp Dewpoint Dewpoint Depression Visibility Wind Speed Wind Dir Waves Ship Positions

Eider

Last reported at 2018-May-18 18:23 UTC. Time now 2018-May-20 17:52 UTC.
Position N 54°23' W 003°57'.

Length 88 m; draft 5.7 m.

Type: Cargo ship. MMSI: 304469000.

Date/timePositionNaut miles runAvg speedWind from/ knotsBaromVisibWave heightAir tempDewpointWater temp
2018-May-18 18:23N 54°23' W 003°57'14 7.9
2018-May-18 16:37N 54°12' W 004°12'88 8.9
2018-May-18 06:41N 52°55' W 005°23'2 7.7
2018-May-18 06:30N 52°53' W 005°23'4 7.1
2018-May-18 05:53N 52°49' W 005°25'65 7.6
2018-May-17 21:22N 51°46' W 005°48'410.4
2018-May-17 21:00N 51°42' W 005°49'610.0
2018-May-17 20:26N 51°36' W 005°50'4 9.8
2018-May-17 20:00N 51°32' W 005°50'5 9.6
2018-May-17 19:31N 51°27' W 005°50'5 9.4
2018-May-17 19:01N 51°23' W 005°50'10 8.8
2018-May-17 17:50N 51°12' W 005°50'47 8.3
2018-May-17 12:08N 50°25' W 005°53'57 5.4
2018-May-17 01:41N 49°59' W 004°34'26 9.7
2018-May-16 23:01N 50°05' W 003°54'0 9.6
2018-May-16 23:01N 50°05' W 003°54'7 9.2
2018-May-16 22:16N 50°07' W 003°44'2 8.6
2018-May-16 22:00N 50°07' W 003°41'4 8.2
2018-May-16 21:31N 50°08' W 003°34'4 7.5
2018-May-16 21:01N 50°09' W 003°29'4 7.2
2018-May-16 20:31N 50°10' W 003°23'4 7.1
2018-May-16 20:01N 50°10' W 003°18'8 6.8
2018-May-16 18:54N 50°11' W 003°06'3 7.1
2018-May-16 18:30N 50°12' W 003°02'4 7.3
2018-May-16 18:00N 50°12' W 002°56'4 7.6
2018-May-16 17:30N 50°13' W 002°50'96 8.6
2018-May-16 06:25N 50°29' W 000°23'3 7.8
2018-May-16 06:00N 50°30' W 000°18'4 8.5
2018-May-16 05:31N 50°31' W 000°11'5 9.0
2018-May-16 05:01N 50°32' W 000°04'5 9.4
2018-May-16 04:30N 50°33' E 000°03'5 9.6
2018-May-16 04:00N 50°35' E 000°10'5 9.7
2018-May-16 03:30N 50°36' E 000°17'5 9.7
2018-May-16 03:00N 50°37' E 000°25'5 9.3
2018-May-16 02:31N 50°38' E 000°32'4 8.9
2018-May-16 02:01N 50°41' E 000°38'4 8.6
2018-May-16 01:30N 50°43' E 000°44'4 8.0
2018-May-16 01:01N 50°45' E 000°49'4 7.4
2018-May-16 00:29N 50°47' E 000°54'27 7.4
2018-May-15 20:54N 51°04' E 001°27'411.0
2018-May-15 20:30N 51°06' E 001°32'611.7
2018-May-15 20:00N 51°10' E 001°39'611.1
2018-May-15 19:30N 51°14' E 001°45'511.0
2018-May-15 19:00N 51°19' E 001°50'510.1
2018-May-15 18:31N 51°23' E 001°54'5 9.3
2018-May-15 18:00N 51°27' E 001°58'4 8.6
2018-May-15 17:30N 51°31' E 002°03'4 8.0
2018-May-15 17:00N 51°34' E 002°07'4 7.5
2018-May-15 16:30N 51°36' E 002°11'4 7.2
2018-May-15 16:00N 51°39' E 002°14'3 6.8
2018-May-15 15:30N 51°42' E 002°18'3 6.3
2018-May-15 15:01N 51°44' E 002°21'3 6.1
2018-May-15 14:29N 51°46' E 002°25'3 5.9
2018-May-15 14:00N 51°49' E 002°28'3 5.8
2018-May-15 13:30N 51°51' E 002°31'3 5.9
2018-May-15 13:00N 51°53' E 002°35'3 6.3
2018-May-15 12:28N 51°55' E 002°39'6 6.9
2018-May-15 11:39N 51°59' E 002°45'2 7.3
2018-May-15 11:21N 52°00' E 002°48'11 7.7
2018-May-15 09:53N 52°02' E 003°06'3 8.1
2018-May-15 09:30N 52°02' E 003°11'4 8.2
2018-May-15 09:00N 52°02' E 003°18'4 8.5
2018-May-15 08:30N 52°02' E 003°24'4 8.6
2018-May-15 07:59N 52°03' E 003°32'4 8.1
2018-May-15 07:30N 52°03' E 003°38'4 7.9
2018-May-15 07:00N 52°02' E 003°44'4 8.1
2018-May-15 06:30N 52°02' E 003°51'4 7.6
2018-May-15 06:00N 52°01' E 003°57'4 8.5
2018-May-15 05:30N 51°59' E 004°03'510.2
2018-May-15 05:00N 51°57' E 004°10'5 9.9
2018-May-15 04:30N 51°54' E 004°17'4 7.0
2018-May-15 04:01N 51°52' E 004°21'3 6.3
2018-May-15 03:30N 51°50' E 004°25'3 6.4
2018-May-15 03:00N 51°50' E 004°30'3 5.6
2018-May-15 02:30N 51°49' E 004°34'3 5.2
2018-May-15 02:00N 51°48' E 004°38'0 0.0
2018-May-15 01:30N 51°48' E 004°38'0 0.0
2018-May-15 01:00N 51°48' E 004°38'0 0.0
2018-May-15 00:30N 51°48' E 004°38'0 0.0
2018-May-15 00:00N 51°48' E 004°38'0 0.0
2018-May-14 23:24N 51°48' E 004°38'0 0.0
2018-May-14 23:00N 51°48' E 004°38'0 0.0
2018-May-14 22:30N 51°48' E 004°38'0 0.0
2018-May-14 22:00N 51°48' E 004°38'0 0.0
2018-May-14 21:27N 51°48' E 004°38'0 0.0
2018-May-14 20:57N 51°48' E 004°38'0 0.0
2018-May-14 20:30N 51°48' E 004°38'0 0.0
2018-May-14 20:00N 51°48' E 004°38'0 0.0
2018-May-14 19:30N 51°48' E 004°38'0 0.0
2018-May-14 18:54N 51°48' E 004°38'0 0.0
2018-May-14 18:30N 51°48' E 004°38'0 0.0
2018-May-14 18:00N 51°48' E 004°38'0 0.0
2018-May-14 17:30N 51°48' E 004°38'0 0.0
2018-May-14 16:54N 51°48' E 004°38'0 0.0
2018-May-14 16:30N 51°48' E 004°38'0 0.0
2018-May-14 16:00N 51°48' E 004°38'0 0.0
2018-May-14 15:30N 51°48' E 004°38'0 0.0
2018-May-14 14:54N 51°48' E 004°38'0 0.0
2018-May-14 14:30N 51°48' E 004°38'0 0.0
2018-May-14 13:54N 51°48' E 004°38'0 0.0
2018-May-14 13:30N 51°48' E 004°38'0 0.0
2018-May-14 13:00N 51°48' E 004°38'0 0.0
2018-May-14 12:30N 51°48' E 004°38'0 0.0
2018-May-14 11:51N 51°48' E 004°38'0 0.0
2018-May-14 11:30N 51°48' E 004°38'0 0.0
2018-May-14 10:57N 51°48' E 004°38'1 2.2
2018-May-14 10:30N 51°48' E 004°37'3 6.4
2018-May-14 10:00N 51°50' E 004°33'3 7.0
2018-May-14 09:30N 51°50' E 004°27'3 6.7
2018-May-14 09:00N 51°51' E 004°22'3 7.0
2018-May-14 08:30N 51°54' E 004°19'4 7.4
2018-May-14 08:00N 51°56' E 004°13'4 7.3
2018-May-14 07:30N 51°58' E 004°09'3 6.9
2018-May-14 07:00N 51°59' E 004°04'4 7.1
2018-May-14 06:30N 51°60' E 003°58'4 7.3
2018-May-14 06:00N 52°00' E 003°52'4 7.5
2018-May-14 05:30N 52°01' E 003°46'4 8.0
2018-May-14 05:00N 52°03' E 003°41'4 7.9
2018-May-14 04:30N 52°05' E 003°35'4 7.9
2018-May-14 04:00N 52°07' E 003°30'4 7.6
2018-May-14 03:26N 52°10' E 003°24'3 6.5
2018-May-14 02:58N 52°13' E 003°23'4 7.6
2018-May-14 02:29N 52°16' E 003°24'4 7.4
2018-May-14 01:53N 52°21' E 003°25'3 7.1
2018-May-14 01:25N 52°24' E 003°27'188 7.6
2018-May-13 00:39N 54°50' E 006°48'1 8.4
2018-May-13 00:30N 54°50' E 006°50'4 8.5
2018-May-13 00:00N 54°53' E 006°56'4 8.3
2018-May-12 23:29N 54°55' E 007°02'4 8.2
2018-May-12 22:59N 54°58' E 007°07'4 8.1
2018-May-12 22:30N 55°00' E 007°13'4 8.1
2018-May-12 22:00N 55°03' E 007°19'4 8.3
2018-May-12 21:30N 55°05' E 007°25'4 8.3
2018-May-12 21:00N 55°07' E 007°31'4 8.2
2018-May-12 20:30N 55°10' E 007°37'4 8.1
2018-May-12 20:00N 55°12' E 007°43'4 8.3
2018-May-12 19:30N 55°14' E 007°49'4 8.2
2018-May-12 19:00N 55°17' E 007°54'4 8.4
2018-May-12 18:30N 55°19' E 008°00'4 8.3
2018-May-12 18:00N 55°22' E 008°06'4 8.0
2018-May-12 17:30N 55°24' E 008°11'5 8.8
2018-May-12 16:59N 55°27' E 008°18'4 7.9
2018-May-12 16:28N 55°29' E 008°25'3 5.7
2018-May-12 16:00N 55°27' E 008°28'0 0.0
2018-May-12 15:09N 55°27' E 008°28'0 0.0
2018-May-12 14:57N 55°27' E 008°28'0 0.0
2018-May-12 14:21N 55°27' E 008°28'0 0.0
2018-May-12 13:54N 55°27' E 008°28'0 0.0
2018-May-12 13:24N 55°27' E 008°28'0 0.0
2018-May-12 12:57N 55°27' E 008°28'0 0.0
2018-May-12 12:24N 55°27' E 008°28'0 0.0
2018-May-12 11:54N 55°27' E 008°28'0 0.0
2018-May-12 11:24N 55°27' E 008°28'0 0.0
2018-May-12 10:57N 55°27' E 008°28'0 0.0
2018-May-12 10:27N 55°27' E 008°28'0 0.0
2018-May-12 10:00N 55°27' E 008°28'0 0.0
2018-May-12 09:30N 55°27' E 008°28'0 0.0
2018-May-12 09:00N 55°27' E 008°28'0 0.0
2018-May-12 08:30N 55°27' E 008°28'0 0.0
2018-May-12 08:00N 55°27' E 008°28'0 0.0
2018-May-12 07:30N 55°27' E 008°28'0 0.0
2018-May-12 07:00N 55°27' E 008°28'2 4.5
2018-May-12 06:30N 55°28' E 008°25'4 7.2
2018-May-12 06:00N 55°27' E 008°19'5 9.1
2018-May-12 05:30N 55°25' E 008°12'3 6.4
2018-May-12 04:59N 55°23' E 008°07'4 7.6
2018-May-12 04:30N 55°21' E 008°02'4 7.4
2018-May-12 04:00N 55°18' E 007°57'4 7.4
2018-May-12 03:30N 55°16' E 007°52'4 7.4
2018-May-12 03:01N 55°14' E 007°47'4 7.4
2018-May-12 02:30N 55°12' E 007°41'4 7.3
2018-May-12 02:01N 55°10' E 007°36'4 7.3
2018-May-12 01:30N 55°08' E 007°31'4 7.3
2018-May-12 01:01N 55°06' E 007°26'4 7.7
2018-May-12 00:30N 55°03' E 007°20'4 7.5
2018-May-12 00:01N 55°01' E 007°15'4 7.5
2018-May-11 23:29N 54°59' E 007°09'4 7.6
2018-May-11 23:00N 54°57' E 007°04'4 7.4
2018-May-11 22:30N 54°54' E 006°59'4 7.3
2018-May-11 22:01N 54°53' E 006°54'4 7.4
2018-May-11 21:30N 54°50' E 006°49'4 7.2
2018-May-11 21:00N 54°49' E 006°43'111 7.2
2018-May-11 05:35N 53°24' E 004°40'34 9.0
2018-May-11 01:48N 52°53' E 004°16'4 9.8
2018-May-11 01:26N 52°50' E 004°14'4 9.7
2018-May-11 01:00N 52°46' E 004°11'6 9.8
2018-May-11 00:26N 52°41' E 004°08'410.0
2018-May-11 00:00N 52°37' E 004°06'5 8.7
2018-May-10 23:27N 52°32' E 004°10'4 8.2
2018-May-10 23:00N 52°31' E 004°16'4 8.3
2018-May-10 22:31N 52°30' E 004°22'4 8.8
2018-May-10 22:00N 52°29' E 004°29'4 7.7
2018-May-10 21:30N 52°28' E 004°35'1 1.5
2018-May-10 21:00N 52°28' E 004°37'3 7.0
2018-May-10 20:31N 52°27' E 004°42'3 5.9
2018-May-10 20:00N 52°25' E 004°46'0 0.0
2018-May-10 19:30N 52°25' E 004°46'0 0.0
2018-May-10 19:00N 52°25' E 004°46'0 0.0
2018-May-10 18:26N 52°25' E 004°46'0 0.0
2018-May-10 18:01N 52°25' E 004°46'0 0.0
2018-May-10 17:30N 52°25' E 004°46'0 0.0
2018-May-10 17:00N 52°25' E 004°46'0 0.0
2018-May-10 16:30N 52°25' E 004°46'0 0.0
2018-May-10 16:00N 52°25' E 004°46'0 0.0
2018-May-10 15:31N 52°25' E 004°46'0 0.0
2018-May-10 15:01N 52°25' E 004°46'0 0.0
2018-May-10 14:30N 52°25' E 004°46'0 0.0
2018-May-10 14:01N 52°25' E 004°46'0 0.0
2018-May-10 13:30N 52°25' E 004°46'0 0.0
2018-May-10 13:00N 52°25' E 004°46'0 0.0
2018-May-10 12:30N 52°25' E 004°46'0 0.0
2018-May-10 12:01N 52°25' E 004°46'0 0.0
2018-May-10 11:31N 52°25' E 004°46'0 0.0
2018-May-10 11:00N 52°25' E 004°46'0 0.0
2018-May-10 10:30N 52°25' E 004°46'0 0.0
2018-May-10 10:00N 52°25' E 004°46'0 0.0
2018-May-10 09:29N 52°25' E 004°46'0 0.0
2018-May-10 08:59N 52°25' E 004°46'0 0.0
2018-May-10 08:31N 52°25' E 004°46'0 0.0
2018-May-10 07:55N 52°25' E 004°46'0 0.0
2018-May-10 07:30N 52°25' E 004°46'0 0.0
2018-May-10 07:00N 52°25' E 004°46'0 0.0
2018-May-10 06:30N 52°25' E 004°46'0 0.0
2018-May-10 05:59N 52°25' E 004°46'0 0.0
2018-May-10 05:30N 52°25' E 004°46'0 0.0
2018-May-10 05:00N 52°25' E 004°46'0 0.0
2018-May-10 04:31N 52°25' E 004°46'0 0.0
2018-May-10 04:00N 52°25' E 004°46'0 0.0
2018-May-10 03:31N 52°25' E 004°46'0 0.0
2018-May-10 03:00N 52°25' E 004°46'0 0.0
2018-May-10 02:30N 52°25' E 004°46'0 0.0
2018-May-10 02:00N 52°25' E 004°46'0 0.0
2018-May-10 01:31N 52°25' E 004°46'0 0.0
2018-May-10 01:00N 52°25' E 004°46'0 0.0
2018-May-10 00:30N 52°25' E 004°46'0 0.0
2018-May-09 23:59N 52°25' E 004°46'0 0.0
2018-May-09 23:30N 52°25' E 004°46'0 0.0
2018-May-09 22:59N 52°25' E 004°46'0 0.0
2018-May-09 22:30N 52°25' E 004°46'0 0.0
2018-May-09 22:00N 52°25' E 004°46'0 0.0
2018-May-09 21:30N 52°25' E 004°46'0 0.0
2018-May-09 21:01N 52°25' E 004°46'0 0.0
2018-May-09 20:30N 52°25' E 004°46'0 0.0
2018-May-09 20:00N 52°25' E 004°46'0 0.0
2018-May-09 19:30N 52°25' E 004°46'0 0.0
2018-May-09 19:00N 52°25' E 004°46'0 0.0
2018-May-09 18:30N 52°25' E 004°46'0 0.0
2018-May-09 18:00N 52°25' E 004°46'0 0.0
2018-May-09 17:30N 52°25' E 004°46'0 0.0
2018-May-09 17:00N 52°25' E 004°46'0 0.0
2018-May-09 16:30N 52°25' E 004°46'0 0.0
2018-May-09 16:00N 52°25' E 004°46'0 0.0
2018-May-09 15:30N 52°25' E 004°46'0 0.0
2018-May-09 15:00N 52°25' E 004°46'0 0.0
2018-May-09 14:26N 52°25' E 004°46'0 0.0
2018-May-09 14:00N 52°25' E 004°46'0 0.0
2018-May-09 13:30N 52°25' E 004°46'0 0.0
2018-May-09 13:00N 52°25' E 004°46'0 0.0
2018-May-09 12:31N 52°25' E 004°46'0 0.0
2018-May-09 12:01N 52°25' E 004°46'0 0.1
2018-May-09 11:31N 52°25' E 004°46'4 7.9
2018-May-09 11:01N 52°27' E 004°41'3 6.3
2018-May-09 10:30N 52°28' E 004°35'1 2.5
2018-May-09 10:00N 52°28' E 004°33'4 7.4
2018-May-09 09:30N 52°28' E 004°27'4 7.2
2018-May-09 09:00N 52°28' E 004°21'4 7.0
2018-May-09 08:30N 52°29' E 004°16'3 6.6
2018-May-09 08:00N 52°29' E 004°10'1 2.5
2018-May-09 07:30N 52°28' E 004°08'0 0.1
2018-May-09 07:00N 52°28' E 004°08'0 0.0
2018-May-09 06:27N 52°28' E 004°08'0 0.0
2018-May-09 05:54N 52°28' E 004°08'0 0.0
2018-May-09 05:27N 52°28' E 004°08'0 0.0
2018-May-09 04:54N 52°28' E 004°08'0 0.0
2018-May-09 04:15N 52°28' E 004°08'0 0.0
2018-May-09 04:00N 52°28' E 004°08'0 0.0
2018-May-09 03:27N 52°28' E 004°08'0 0.0
2018-May-09 03:00N 52°28' E 004°08'0 0.0
2018-May-09 02:30N 52°28' E 004°08'0 0.1
2018-May-09 01:54N 52°28' E 004°09'0 0.1
2018-May-09 01:27N 52°28' E 004°09'0 0.0
2018-May-09 01:00N 52°28' E 004°09'0 0.0
2018-May-08 23:57N 52°28' E 004°09'0 0.0
2018-May-08 23:24N 52°28' E 004°08'0 0.0
2018-May-08 22:54N 52°28' E 004°08'0 0.0
2018-May-08 22:30N 52°28' E 004°08'0 0.0
2018-May-08 21:57N 52°28' E 004°08'0 0.0
2018-May-08 21:30N 52°28' E 004°08'0 0.0
2018-May-08 21:00N 52°28' E 004°08'0 0.0
2018-May-08 20:30N 52°28' E 004°08'0 0.0
2018-May-08 19:54N 52°28' E 004°08'0 0.0
2018-May-08 19:27N 52°28' E 004°08'0 0.1
2018-May-08 19:00N 52°28' E 004°08'0 0.1
2018-May-08 18:30N 52°28' E 004°08'  
Track history (hours):
 
Tides and Currents Weather Stations Pressure Air Temp Water Temp Dewpoint Dewpoint Depression Visibility Wind Speed Wind Dir Waves Ship Positions

Eider

Last reported at 2018-May-18 18:23 UTC. Time now 2018-May-20 17:52 UTC.
Position N 54°23' W 003°57'.

Length 88 m; draft 5.7 m.

Type: Cargo ship. MMSI: 304469000.

Date/timePositionNaut miles runAvg speedWind from/ knotsBaromVisibWave heightAir tempDewpointWater temp
2018-May-18 18:23N 54°23' W 003°57'14 7.9
2018-May-18 16:37N 54°12' W 004°12'88 8.9
2018-May-18 06:41N 52°55' W 005°23'2 7.7
2018-May-18 06:30N 52°53' W 005°23'4 7.1
2018-May-18 05:53N 52°49' W 005°25'65 7.6
2018-May-17 21:22N 51°46' W 005°48'410.4
2018-May-17 21:00N 51°42' W 005°49'610.0
2018-May-17 20:26N 51°36' W 005°50'4 9.8
2018-May-17 20:00N 51°32' W 005°50'5 9.6
2018-May-17 19:31N 51°27' W 005°50'5 9.4
2018-May-17 19:01N 51°23' W 005°50'10 8.8
2018-May-17 17:50N 51°12' W 005°50'47 8.3
2018-May-17 12:08N 50°25' W 005°53'57 5.4
2018-May-17 01:41N 49°59' W 004°34'26 9.7
2018-May-16 23:01N 50°05' W 003°54'0 9.6
2018-May-16 23:01N 50°05' W 003°54'7 9.2
2018-May-16 22:16N 50°07' W 003°44'2 8.6
2018-May-16 22:00N 50°07' W 003°41'4 8.2
2018-May-16 21:31N 50°08' W 003°34'4 7.5
2018-May-16 21:01N 50°09' W 003°29'4 7.2
2018-May-16 20:31N 50°10' W 003°23'4 7.1
2018-May-16 20:01N 50°10' W 003°18'8 6.8
2018-May-16 18:54N 50°11' W 003°06'3 7.1
2018-May-16 18:30N 50°12' W 003°02'4 7.3
2018-May-16 18:00N 50°12' W 002°56'4 7.6
2018-May-16 17:30N 50°13' W 002°50'96 8.6
2018-May-16 06:25N 50°29' W 000°23'3 7.8
2018-May-16 06:00N 50°30' W 000°18'4 8.5
2018-May-16 05:31N 50°31' W 000°11'5 9.0
2018-May-16 05:01N 50°32' W 000°04'5 9.4
2018-May-16 04:30N 50°33' E 000°03'5 9.6
2018-May-16 04:00N 50°35' E 000°10'5 9.7
2018-May-16 03:30N 50°36' E 000°17'5 9.7
2018-May-16 03:00N 50°37' E 000°25'5 9.3
2018-May-16 02:31N 50°38' E 000°32'4 8.9
2018-May-16 02:01N 50°41' E 000°38'4 8.6
2018-May-16 01:30N 50°43' E 000°44'4 8.0
2018-May-16 01:01N 50°45' E 000°49'4 7.4
2018-May-16 00:29N 50°47' E 000°54'27 7.4
2018-May-15 20:54N 51°04' E 001°27'411.0
2018-May-15 20:30N 51°06' E 001°32'611.7
2018-May-15 20:00N 51°10' E 001°39'611.1
2018-May-15 19:30N 51°14' E 001°45'511.0
2018-May-15 19:00N 51°19' E 001°50'510.1
2018-May-15 18:31N 51°23' E 001°54'5 9.3
2018-May-15 18:00N 51°27' E 001°58'4 8.6
2018-May-15 17:30N 51°31' E 002°03'4 8.0
2018-May-15 17:00N 51°34' E 002°07'4 7.5
2018-May-15 16:30N 51°36' E 002°11'4 7.2
2018-May-15 16:00N 51°39' E 002°14'3 6.8
2018-May-15 15:30N 51°42' E 002°18'3 6.3
2018-May-15 15:01N 51°44' E 002°21'3 6.1
2018-May-15 14:29N 51°46' E 002°25'3 5.9
2018-May-15 14:00N 51°49' E 002°28'3 5.8
2018-May-15 13:30N 51°51' E 002°31'3 5.9
2018-May-15 13:00N 51°53' E 002°35'3 6.3
2018-May-15 12:28N 51°55' E 002°39'6 6.9
2018-May-15 11:39N 51°59' E 002°45'2 7.3
2018-May-15 11:21N 52°00' E 002°48'11 7.7
2018-May-15 09:53N 52°02' E 003°06'3 8.1
2018-May-15 09:30N 52°02' E 003°11'4 8.2
2018-May-15 09:00N 52°02' E 003°18'4 8.5
2018-May-15 08:30N 52°02' E 003°24'4 8.6
2018-May-15 07:59N 52°03' E 003°32'4 8.1
2018-May-15 07:30N 52°03' E 003°38'4 7.9
2018-May-15 07:00N 52°02' E 003°44'4 8.1
2018-May-15 06:30N 52°02' E 003°51'4 7.6
2018-May-15 06:00N 52°01' E 003°57'4 8.5
2018-May-15 05:30N 51°59' E 004°03'510.2
2018-May-15 05:00N 51°57' E 004°10'5 9.9
2018-May-15 04:30N 51°54' E 004°17'4 7.0
2018-May-15 04:01N 51°52' E 004°21'3 6.3
2018-May-15 03:30N 51°50' E 004°25'3 6.4
2018-May-15 03:00N 51°50' E 004°30'3 5.6
2018-May-15 02:30N 51°49' E 004°34'3 5.2
2018-May-15 02:00N 51°48' E 004°38'0 0.0
2018-May-15 01:30N 51°48' E 004°38'0 0.0
2018-May-15 01:00N 51°48' E 004°38'0 0.0
2018-May-15 00:30N 51°48' E 004°38'0 0.0
2018-May-15 00:00N 51°48' E 004°38'0 0.0
2018-May-14 23:24N 51°48' E 004°38'0 0.0
2018-May-14 23:00N 51°48' E 004°38'0 0.0
2018-May-14 22:30N 51°48' E 004°38'0 0.0
2018-May-14 22:00N 51°48' E 004°38'0 0.0
2018-May-14 21:27N 51°48' E 004°38'0 0.0
2018-May-14 20:57N 51°48' E 004°38'0 0.0
2018-May-14 20:30N 51°48' E 004°38'0 0.0
2018-May-14 20:00N 51°48' E 004°38'0 0.0
2018-May-14 19:30N 51°48' E 004°38'0 0.0
2018-May-14 18:54N 51°48' E 004°38'0 0.0
2018-May-14 18:30N 51°48' E 004°38'0 0.0
2018-May-14 18:00N 51°48' E 004°38'0 0.0
2018-May-14 17:30N 51°48' E 004°38'0 0.0
2018-May-14 16:54N 51°48' E 004°38'0 0.0
2018-May-14 16:30N 51°48' E 004°38'0 0.0
2018-May-14 16:00N 51°48' E 004°38'0 0.0
2018-May-14 15:30N 51°48' E 004°38'0 0.0
2018-May-14 14:54N 51°48' E 004°38'0 0.0
2018-May-14 14:30N 51°48' E 004°38'0 0.0
2018-May-14 13:54N 51°48' E 004°38'0 0.0
2018-May-14 13:30N 51°48' E 004°38'0 0.0
2018-May-14 13:00N 51°48' E 004°38'0 0.0
2018-May-14 12:30N 51°48' E 004°38'0 0.0
2018-May-14 11:51N 51°48' E 004°38'0 0.0
2018-May-14 11:30N 51°48' E 004°38'0 0.0
2018-May-14 10:57N 51°48' E 004°38'1 2.2
2018-May-14 10:30N 51°48' E 004°37'3 6.4
2018-May-14 10:00N 51°50' E 004°33'3 7.0
2018-May-14 09:30N 51°50' E 004°27'3 6.7
2018-May-14 09:00N 51°51' E 004°22'3 7.0
2018-May-14 08:30N 51°54' E 004°19'4 7.4
2018-May-14 08:00N 51°56' E 004°13'4 7.3
2018-May-14 07:30N 51°58' E 004°09'3 6.9
2018-May-14 07:00N 51°59' E 004°04'4 7.1
2018-May-14 06:30N 51°60' E 003°58'4 7.3
2018-May-14 06:00N 52°00' E 003°52'4 7.5
2018-May-14 05:30N 52°01' E 003°46'4 8.0
2018-May-14 05:00N 52°03' E 003°41'4 7.9
2018-May-14 04:30N 52°05' E 003°35'4 7.9
2018-May-14 04:00N 52°07' E 003°30'4 7.6
2018-May-14 03:26N 52°10' E 003°24'3 6.5
2018-May-14 02:58N 52°13' E 003°23'4 7.6
2018-May-14 02:29N 52°16' E 003°24'4 7.4
2018-May-14 01:53N 52°21' E 003°25'3 7.1
2018-May-14 01:25N 52°24' E 003°27'188 7.6
2018-May-13 00:39N 54°50' E 006°48'1 8.4
2018-May-13 00:30N 54°50' E 006°50'4 8.5
2018-May-13 00:00N 54°53' E 006°56'4 8.3
2018-May-12 23:29N 54°55' E 007°02'4 8.2
2018-May-12 22:59N 54°58' E 007°07'4 8.1
2018-May-12 22:30N 55°00' E 007°13'4 8.1
2018-May-12 22:00N 55°03' E 007°19'4 8.3
2018-May-12 21:30N 55°05' E 007°25'4 8.3
2018-May-12 21:00N 55°07' E 007°31'4 8.2
2018-May-12 20:30N 55°10' E 007°37'4 8.1
2018-May-12 20:00N 55°12' E 007°43'4 8.3
2018-May-12 19:30N 55°14' E 007°49'4 8.2
2018-May-12 19:00N 55°17' E 007°54'4 8.4
2018-May-12 18:30N 55°19' E 008°00'4 8.3
2018-May-12 18:00N 55°22' E 008°06'4 8.0
2018-May-12 17:30N 55°24' E 008°11'5 8.8
2018-May-12 16:59N 55°27' E 008°18'4 7.9
2018-May-12 16:28N 55°29' E 008°25'3 5.7
2018-May-12 16:00N 55°27' E 008°28'0 0.0
2018-May-12 15:09N 55°27' E 008°28'0 0.0
2018-May-12 14:57N 55°27' E 008°28'0 0.0
2018-May-12 14:21N 55°27' E 008°28'0 0.0
2018-May-12 13:54N 55°27' E 008°28'0 0.0
2018-May-12 13:24N 55°27' E 008°28'0 0.0
2018-May-12 12:57N 55°27' E 008°28'0 0.0
2018-May-12 12:24N 55°27' E 008°28'0 0.0
2018-May-12 11:54N 55°27' E 008°28'0 0.0
2018-May-12 11:24N 55°27' E 008°28'0 0.0
2018-May-12 10:57N 55°27' E 008°28'0 0.0
2018-May-12 10:27N 55°27' E 008°28'0 0.0
2018-May-12 10:00N 55°27' E 008°28'0 0.0
2018-May-12 09:30N 55°27' E 008°28'0 0.0
2018-May-12 09:00N 55°27' E 008°28'0 0.0
2018-May-12 08:30N 55°27' E 008°28'0 0.0
2018-May-12 08:00N 55°27' E 008°28'0 0.0
2018-May-12 07:30N 55°27' E 008°28'0 0.0
2018-May-12 07:00N 55°27' E 008°28'2 4.5
2018-May-12 06:30N 55°28' E 008°25'4 7.2
2018-May-12 06:00N 55°27' E 008°19'5 9.1
2018-May-12 05:30N 55°25' E 008°12'3 6.4
2018-May-12 04:59N 55°23' E 008°07'4 7.6
2018-May-12 04:30N 55°21' E 008°02'4 7.4
2018-May-12 04:00N 55°18' E 007°57'4 7.4
2018-May-12 03:30N 55°16' E 007°52'4 7.4
2018-May-12 03:01N 55°14' E 007°47'4 7.4
2018-May-12 02:30N 55°12' E 007°41'4 7.3
2018-May-12 02:01N 55°10' E 007°36'4 7.3
2018-May-12 01:30N 55°08' E 007°31'4 7.3
2018-May-12 01:01N 55°06' E 007°26'4 7.7
2018-May-12 00:30N 55°03' E 007°20'4 7.5
2018-May-12 00:01N 55°01' E 007°15'4 7.5
2018-May-11 23:29N 54°59' E 007°09'4 7.6
2018-May-11 23:00N 54°57' E 007°04'4 7.4
2018-May-11 22:30N 54°54' E 006°59'4 7.3
2018-May-11 22:01N 54°53' E 006°54'4 7.4
2018-May-11 21:30N 54°50' E 006°49'4 7.2
2018-May-11 21:00N 54°49' E 006°43'111 7.2
2018-May-11 05:35N 53°24' E 004°40'34 9.0
2018-May-11 01:48N 52°53' E 004°16'4 9.8
2018-May-11 01:26N 52°50' E 004°14'4 9.7
2018-May-11 01:00N 52°46' E 004°11'6 9.8
2018-May-11 00:26N 52°41' E 004°08'410.0
2018-May-11 00:00N 52°37' E 004°06'5 8.7
2018-May-10 23:27N 52°32' E 004°10'4 8.2
2018-May-10 23:00N 52°31' E 004°16'4 8.3
2018-May-10 22:31N 52°30' E 004°22'4 8.8
2018-May-10 22:00N 52°29' E 004°29'4 7.7
2018-May-10 21:30N 52°28' E 004°35'1 1.5
2018-May-10 21:00N 52°28' E 004°37'3 7.0
2018-May-10 20:31N 52°27' E 004°42'3 5.9
2018-May-10 20:00N 52°25' E 004°46'0 0.0
2018-May-10 19:30N 52°25' E 004°46'0 0.0
2018-May-10 19:00N 52°25' E 004°46'0 0.0
2018-May-10 18:26N 52°25' E 004°46'0 0.0
2018-May-10 18:01N 52°25' E 004°46'0 0.0
2018-May-10 17:30N 52°25' E 004°46'0 0.0
2018-May-10 17:00N 52°25' E 004°46'0 0.0
2018-May-10 16:30N 52°25' E 004°46'0 0.0
2018-May-10 16:00N 52°25' E 004°46'0 0.0
2018-May-10 15:31N 52°25' E 004°46'0 0.0
2018-May-10 15:01N 52°25' E 004°46'0 0.0
2018-May-10 14:30N 52°25' E 004°46'0 0.0
2018-May-10 14:01N 52°25' E 004°46'0 0.0
2018-May-10 13:30N 52°25' E 004°46'0 0.0
2018-May-10 13:00N 52°25' E 004°46'0 0.0
2018-May-10 12:30N 52°25' E 004°46'0 0.0
2018-May-10 12:01N 52°25' E 004°46'0 0.0
2018-May-10 11:31N 52°25' E 004°46'0 0.0
2018-May-10 11:00N 52°25' E 004°46'0 0.0
2018-May-10 10:30N 52°25' E 004°46'0 0.0
2018-May-10 10:00N 52°25' E 004°46'0 0.0
2018-May-10 09:29N 52°25' E 004°46'0 0.0
2018-May-10 08:59N 52°25' E 004°46'0 0.0
2018-May-10 08:31N 52°25' E 004°46'0 0.0
2018-May-10 07:55N 52°25' E 004°46'0 0.0
2018-May-10 07:30N 52°25' E 004°46'0 0.0
2018-May-10 07:00N 52°25' E 004°46'0 0.0
2018-May-10 06:30N 52°25' E 004°46'0 0.0
2018-May-10 05:59N 52°25' E 004°46'0 0.0
2018-May-10 05:30N 52°25' E 004°46'0 0.0
2018-May-10 05:00N 52°25' E 004°46'0 0.0
2018-May-10 04:31N 52°25' E 004°46'0 0.0
2018-May-10 04:00N 52°25' E 004°46'0 0.0
2018-May-10 03:31N 52°25' E 004°46'0 0.0
2018-May-10 03:00N 52°25' E 004°46'0 0.0
2018-May-10 02:30N 52°25' E 004°46'0 0.0
2018-May-10 02:00N 52°25' E 004°46'0 0.0
2018-May-10 01:31N 52°25' E 004°46'0 0.0
2018-May-10 01:00N 52°25' E 004°46'0 0.0
2018-May-10 00:30N 52°25' E 004°46'0 0.0
2018-May-09 23:59N 52°25' E 004°46'0 0.0
2018-May-09 23:30N 52°25' E 004°46'0 0.0
2018-May-09 22:59N 52°25' E 004°46'0 0.0
2018-May-09 22:30N 52°25' E 004°46'0 0.0
2018-May-09 22:00N 52°25' E 004°46'0 0.0
2018-May-09 21:30N 52°25' E 004°46'0 0.0
2018-May-09 21:01N 52°25' E 004°46'0 0.0
2018-May-09 20:30N 52°25' E 004°46'0 0.0
2018-May-09 20:00N 52°25' E 004°46'0 0.0
2018-May-09 19:30N 52°25' E 004°46'0 0.0
2018-May-09 19:00N 52°25' E 004°46'0 0.0
2018-May-09 18:30N 52°25' E 004°46'0 0.0
2018-May-09 18:00N 52°25' E 004°46'0 0.0
2018-May-09 17:30N 52°25' E 004°46'0 0.0
2018-May-09 17:00N 52°25' E 004°46'0 0.0
2018-May-09 16:30N 52°25' E 004°46'0 0.0
2018-May-09 16:00N 52°25' E 004°46'0 0.0
2018-May-09 15:30N 52°25' E 004°46'0 0.0
2018-May-09 15:00N 52°25' E 004°46'0 0.0
2018-May-09 14:26N 52°25' E 004°46'0 0.0
2018-May-09 14:00N 52°25' E 004°46'0 0.0
2018-May-09 13:30N 52°25' E 004°46'0 0.0
2018-May-09 13:00N 52°25' E 004°46'0 0.0
2018-May-09 12:31N 52°25' E 004°46'0 0.0
2018-May-09 12:01N 52°25' E 004°46'0 0.1
2018-May-09 11:31N 52°25' E 004°46'4 7.9
2018-May-09 11:01N 52°27' E 004°41'3 6.3
2018-May-09 10:30N 52°28' E 004°35'1 2.5
2018-May-09 10:00N 52°28' E 004°33'4 7.4
2018-May-09 09:30N 52°28' E 004°27'4 7.2
2018-May-09 09:00N 52°28' E 004°21'4 7.0
2018-May-09 08:30N 52°29' E 004°16'3 6.6
2018-May-09 08:00N 52°29' E 004°10'1 2.5
2018-May-09 07:30N 52°28' E 004°08'0 0.1
2018-May-09 07:00N 52°28' E 004°08'0 0.0
2018-May-09 06:27N 52°28' E 004°08'0 0.0
2018-May-09 05:54N 52°28' E 004°08'0 0.0
2018-May-09 05:27N 52°28' E 004°08'0 0.0
2018-May-09 04:54N 52°28' E 004°08'0 0.0
2018-May-09 04:15N 52°28' E 004°08'0 0.0
2018-May-09 04:00N 52°28' E 004°08'0 0.0
2018-May-09 03:27N 52°28' E 004°08'0 0.0
2018-May-09 03:00N 52°28' E 004°08'0 0.0
2018-May-09 02:30N 52°28' E 004°08'0 0.1
2018-May-09 01:54N 52°28' E 004°09'0 0.1
2018-May-09 01:27N 52°28' E 004°09'0 0.0
2018-May-09 01:00N 52°28' E 004°09'0 0.0
2018-May-08 23:57N 52°28' E 004°09'0 0.0
2018-May-08 23:24N 52°28' E 004°08'0 0.0
2018-May-08 22:54N 52°28' E 004°08'0 0.0
2018-May-08 22:30N 52°28' E 004°08'0 0.0
2018-May-08 21:57N 52°28' E 004°08'0 0.0
2018-May-08 21:30N 52°28' E 004°08'0 0.0
2018-May-08 21:00N 52°28' E 004°08'0 0.0
2018-May-08 20:30N 52°28' E 004°08'0 0.0
2018-May-08 19:54N 52°28' E 004°08'0 0.0
2018-May-08 19:27N 52°28' E 004°08'0 0.1
2018-May-08 19:00N 52°28' E 004°08'0 0.1
2018-May-08 18:30N 52°28' E 004°08'  

Dump ship's entire track history